createdAt,value
2018-06-13T00:02:14.357Z,81.21
2018-06-13T00:04:43.529Z,80.68
2018-06-13T00:07:12.719Z,81.14
2018-06-13T00:09:41.885Z,80.17
2018-06-13T00:12:11.061Z,79.34
2018-06-13T00:14:40.489Z,80.17
2018-06-13T00:17:09.669Z,79.65
2018-06-13T00:19:38.843Z,79.93
2018-06-13T00:22:08.018Z,80.13
2018-06-13T00:24:37.180Z,80.76
2018-06-13T00:27:06.392Z,80.51
2018-06-13T00:29:35.573Z,81.15
2018-06-13T00:32:04.766Z,81.45
2018-06-13T00:34:33.941Z,81.27
2018-06-13T00:37:03.122Z,80.24
2018-06-13T00:39:32.311Z,80.75
2018-06-13T00:42:01.482Z,81.73
2018-06-13T00:44:30.864Z,81.13
2018-06-13T00:47:00.043Z,80.63
2018-06-13T00:49:29.209Z,80.35
2018-06-13T00:51:58.392Z,81.03
2018-06-13T00:54:27.525Z,80.51
2018-06-13T00:56:56.656Z,80.03
2018-06-13T00:59:25.800Z,80.29
2018-06-13T01:01:54.939Z,80.93
2018-06-13T01:04:24.062Z,80.41
2018-06-13T01:06:53.204Z,80.96
2018-06-13T01:09:22.372Z,81.07
2018-06-13T01:11:51.517Z,80.97
2018-06-13T01:14:20.645Z,80.87
2018-06-13T01:16:50.055Z,80.50
2018-06-13T01:19:19.187Z,80.35
2018-06-13T01:21:48.352Z,80.68
2018-06-13T01:24:17.454Z,81.13
2018-06-13T01:26:46.586Z,80.59
2018-06-13T01:29:15.770Z,80.49
2018-06-13T01:31:44.856Z,80.53
2018-06-13T01:34:13.993Z,80.40
2018-06-13T01:36:43.282Z,80.74
2018-06-13T01:39:12.419Z,80.38
2018-06-13T01:41:41.549Z,80.40
2018-06-13T01:44:10.689Z,80.39
2018-06-13T01:46:39.817Z,80.73
2018-06-13T01:49:08.966Z,80.87
2018-06-13T01:51:38.101Z,81.59
2018-06-13T01:54:07.383Z,80.90
2018-06-13T01:56:36.281Z,81.40
2018-06-13T01:59:05.435Z,80.55
2018-06-13T02:01:34.568Z,81.24
2018-06-13T02:04:03.701Z,82.02
2018-06-13T02:06:32.842Z,81.73
2018-06-13T02:09:01.974Z,82.04
2018-06-13T02:11:31.097Z,81.86
2018-06-13T02:14:00.225Z,82.25
2018-06-13T02:16:29.385Z,82.04
2018-06-13T02:18:58.741Z,81.77
2018-06-13T02:21:27.873Z,81.27
2018-06-13T02:23:57.069Z,81.45
2018-06-13T02:26:26.253Z,81.57
2018-06-13T02:28:55.426Z,81.64
2018-06-13T02:31:24.635Z,81.44
2018-06-13T02:33:53.839Z,81.04
2018-06-13T02:36:23.014Z,81.17
2018-06-13T02:38:52.249Z,81.77
2018-06-13T02:41:21.418Z,81.15
2018-06-13T02:43:50.609Z,80.98
2018-06-13T02:46:20.023Z,81.35
2018-06-13T02:48:49.206Z,81.55
2018-06-13T02:51:18.382Z,81.00
2018-06-13T02:53:47.565Z,81.00
2018-06-13T02:56:16.746Z,81.28
2018-06-13T02:58:45.917Z,81.16
2018-06-13T03:01:15.105Z,80.79
2018-06-13T03:03:44.289Z,81.55
2018-06-13T03:06:13.456Z,80.74
2018-06-13T03:08:42.799Z,81.14
2018-06-13T03:11:11.966Z,81.18
2018-06-13T03:13:41.153Z,81.75
2018-06-13T03:16:10.329Z,81.72
2018-06-13T03:18:39.517Z,81.73
2018-06-13T03:21:08.717Z,81.74
2018-06-13T03:23:37.914Z,81.93
2018-06-13T03:26:07.066Z,82.47
2018-06-13T03:28:36.209Z,82.52
2018-06-13T03:31:05.354Z,82.45
2018-06-13T03:33:34.538Z,82.14
2018-06-13T03:36:03.671Z,82.42
2018-06-13T03:38:32.797Z,82.73
2018-06-13T03:41:02.017Z,82.34
2018-06-13T03:43:31.158Z,82.75
2018-06-13T03:46:00.297Z,82.06
2018-06-13T03:48:29.474Z,82.14
2018-06-13T03:50:58.760Z,82.11
2018-06-13T03:53:27.894Z,82.37
2018-06-13T03:55:57.157Z,82.00
2018-06-13T03:58:26.290Z,82.18
2018-06-13T04:00:55.440Z,82.43
2018-06-13T04:03:24.667Z,81.96
2018-06-13T04:05:53.808Z,82.44
2018-06-13T04:08:22.950Z,82.09
2018-06-13T04:10:52.090Z,81.89
2018-06-13T04:13:21.245Z,82.59
2018-06-13T04:15:50.425Z,82.55
2018-06-13T04:18:19.593Z,81.85
2018-06-13T04:20:48.734Z,81.67
2018-06-13T04:23:17.858Z,81.59
2018-06-13T04:25:47.037Z,80.83
2018-06-13T04:28:16.165Z,80.44
2018-06-13T04:30:45.313Z,79.18
2018-06-13T04:33:14.448Z,78.63
2018-06-13T04:35:43.618Z,79.05
2018-06-13T04:38:12.761Z,80.10
2018-06-13T04:40:41.891Z,80.77
2018-06-13T04:43:11.037Z,81.18
2018-06-13T04:45:40.181Z,80.64
2018-06-13T04:48:09.380Z,81.44
2018-06-13T04:50:38.577Z,80.09
2018-06-13T04:53:07.761Z,80.17
2018-06-13T04:55:36.930Z,80.42
2018-06-13T04:58:06.109Z,79.52
2018-06-13T05:00:35.446Z,80.89
2018-06-13T05:03:04.643Z,80.80
2018-06-13T05:05:33.825Z,79.56
2018-06-13T05:08:03.024Z,79.51
2018-06-13T05:10:32.193Z,80.81
2018-06-13T05:13:01.374Z,80.58
2018-06-13T05:15:30.545Z,80.27
2018-06-13T05:17:59.729Z,80.57
2018-06-13T05:20:28.926Z,80.39
2018-06-13T05:22:58.105Z,81.65
2018-06-13T05:25:27.317Z,81.62
2018-06-13T05:27:56.482Z,82.05
2018-06-13T05:30:25.677Z,80.61
2018-06-13T05:32:54.853Z,79.76
2018-06-13T05:35:25.062Z,79.57
2018-06-13T05:37:54.229Z,80.63
2018-06-13T05:40:23.414Z,81.61
2018-06-13T05:42:52.593Z,79.93
2018-06-13T05:45:21.752Z,79.42
2018-06-13T05:47:50.940Z,80.87
2018-06-13T05:50:20.106Z,80.51
2018-06-13T05:52:49.367Z,81.79
2018-06-13T05:55:18.563Z,81.33
2018-06-13T05:57:47.749Z,80.78
2018-06-13T06:00:16.909Z,80.49
2018-06-13T06:02:46.100Z,80.27
2018-06-13T06:05:15.277Z,79.75
2018-06-13T06:07:44.573Z,79.15
2018-06-13T06:10:13.796Z,80.17
2018-06-13T06:12:42.971Z,80.05
2018-06-13T06:15:12.142Z,78.47
2018-06-13T06:17:41.316Z,79.29
2018-06-13T06:20:10.550Z,79.59
2018-06-13T06:22:39.709Z,80.52
2018-06-13T06:25:08.941Z,81.23
2018-06-13T06:27:38.081Z,80.43
2018-06-13T06:30:07.205Z,80.26
2018-06-13T06:32:36.350Z,80.39
2018-06-13T06:35:05.527Z,80.33
2018-06-13T06:37:34.657Z,79.97
2018-06-13T06:40:03.797Z,79.63
2018-06-13T06:42:32.927Z,79.63
2018-06-13T06:45:02.070Z,81.50
2018-06-13T06:47:31.208Z,79.01
2018-06-13T06:50:00.329Z,78.87
2018-06-13T06:52:29.495Z,79.68
2018-06-13T06:54:58.625Z,79.16
2018-06-13T06:57:27.982Z,79.91
2018-06-13T06:59:57.135Z,80.00
2018-06-13T07:02:26.266Z,81.70
2018-06-13T07:04:55.413Z,80.22
2018-06-13T07:07:24.573Z,81.00
2018-06-13T07:09:53.705Z,80.52
2018-06-13T07:12:22.833Z,78.33
2018-06-13T07:14:52.037Z,79.21
2018-06-13T07:17:21.173Z,79.58
2018-06-13T07:19:50.325Z,79.67
2018-06-13T07:22:19.457Z,78.88
2018-06-13T07:24:48.865Z,79.10
2018-06-13T07:27:17.969Z,79.09
2018-06-13T07:29:47.120Z,79.46
2018-06-13T07:32:16.258Z,80.14
2018-06-13T07:34:45.627Z,79.98
2018-06-13T07:37:14.750Z,77.00
2018-06-13T07:39:43.890Z,79.11
2018-06-13T07:42:13.169Z,80.17
2018-06-13T07:44:42.293Z,79.49
2018-06-13T07:47:11.417Z,79.87
2018-06-13T07:49:40.659Z,80.72
2018-06-13T07:52:09.814Z,80.10
2018-06-13T07:54:39.012Z,80.12
2018-06-13T07:57:08.193Z,79.79
2018-06-13T07:59:37.389Z,79.61
2018-06-13T08:02:06.571Z,81.25
2018-06-13T08:04:35.762Z,80.52
2018-06-13T08:07:04.936Z,79.28
2018-06-13T08:09:34.120Z,79.22
2018-06-13T08:12:03.305Z,79.07
2018-06-13T08:14:32.498Z,79.18
2018-06-13T08:17:01.894Z,79.06
2018-06-13T08:19:31.081Z,78.59
2018-06-13T08:22:00.266Z,78.84
2018-06-13T08:24:34.833Z,79.17
2018-06-13T08:27:04.037Z,79.43
2018-06-13T08:29:33.206Z,80.04
2018-06-13T08:32:02.401Z,81.50
2018-06-13T08:34:31.353Z,80.74
2018-06-13T08:37:00.550Z,81.30
2018-06-13T08:39:29.731Z,79.85
2018-06-13T08:41:58.929Z,80.25
2018-06-13T08:44:28.113Z,80.73
2018-06-13T08:46:57.325Z,79.13
2018-06-13T08:49:26.611Z,78.06
2018-06-13T08:51:55.793Z,78.87
2018-06-13T08:54:24.981Z,79.64
2018-06-13T08:56:54.165Z,79.25
2018-06-13T08:59:23.354Z,79.46
2018-06-13T09:01:52.550Z,79.44
2018-06-13T09:04:21.690Z,78.94
2018-06-13T09:06:50.821Z,80.20
2018-06-13T09:09:19.965Z,79.46
2018-06-13T09:11:49.135Z,79.02
2018-06-13T09:14:18.300Z,78.85
2018-06-13T09:16:47.425Z,79.66
2018-06-13T09:19:16.590Z,79.69
2018-06-13T09:21:45.945Z,80.32
2018-06-13T09:24:15.081Z,80.01
2018-06-13T09:26:44.213Z,79.24
2018-06-13T09:29:13.356Z,79.26
2018-06-13T09:31:42.485Z,79.19
2018-06-13T09:34:11.625Z,80.45
2018-06-13T09:36:41.032Z,80.02
2018-06-13T09:39:10.165Z,79.51
2018-06-13T09:41:44.486Z,80.67
2018-06-13T09:44:13.613Z,80.96
2018-06-13T09:46:48.917Z,80.22
2018-06-13T09:49:11.894Z,80.74
2018-06-13T09:51:41.029Z,80.69
2018-06-13T09:54:10.174Z,79.42
2018-06-13T09:56:39.355Z,79.35
2018-06-13T09:59:13.649Z,80.24
2018-06-13T10:02:19.089Z,80.52
2018-06-13T10:04:48.982Z,79.29
2018-06-13T10:07:18.231Z,79.89
2018-06-13T10:09:47.354Z,79.39
2018-06-13T10:12:16.509Z,79.22
2018-06-13T10:14:45.680Z,79.28
2018-06-13T10:17:14.790Z,79.99
2018-06-13T10:19:43.929Z,79.80
2018-06-13T10:22:13.100Z,80.96
2018-06-13T10:24:42.221Z,79.97
2018-06-13T10:27:16.541Z,79.76
2018-06-13T10:29:45.715Z,79.18
2018-06-13T10:32:14.851Z,79.23
2018-06-13T10:34:43.993Z,80.50
2018-06-13T10:37:13.132Z,79.76
2018-06-13T10:39:42.265Z,80.42
2018-06-13T10:42:11.402Z,80.07
2018-06-13T10:44:40.554Z,80.26
2018-06-13T10:47:09.694Z,79.60
2018-06-13T10:49:38.899Z,80.59
2018-06-13T10:52:08.034Z,79.99
2018-06-13T10:54:37.474Z,80.05
2018-06-13T10:57:07.645Z,79.50
2018-06-13T10:59:36.802Z,80.32
2018-06-13T11:02:06.452Z,80.14
2018-06-13T11:04:35.610Z,80.39
2018-06-13T11:07:04.849Z,80.57
2018-06-13T11:09:34.039Z,78.88
2018-06-13T11:12:03.226Z,79.90
2018-06-13T11:14:32.426Z,78.30
2018-06-13T11:17:01.634Z,79.52
2018-06-13T11:19:30.818Z,80.26
2018-06-13T11:22:00.019Z,79.71
2018-06-13T11:24:29.206Z,80.43
2018-06-13T11:26:58.393Z,79.47
2018-06-13T11:29:27.596Z,79.04
2018-06-13T11:31:56.798Z,79.94
2018-06-13T11:34:25.941Z,80.23
2018-06-13T11:36:55.078Z,80.19
2018-06-13T11:39:24.218Z,80.67
2018-06-13T11:41:53.362Z,79.58
2018-06-13T11:44:22.497Z,80.36
2018-06-13T11:46:51.665Z,79.78
2018-06-13T11:49:20.794Z,78.83
2018-06-13T11:51:49.945Z,79.72
2018-06-13T11:54:19.093Z,79.18
2018-06-13T11:56:48.290Z,80.24
2018-06-13T11:59:17.477Z,79.65
2018-06-13T12:01:46.712Z,79.28
2018-06-13T12:04:16.029Z,78.92
2018-06-13T12:06:45.165Z,80.21
2018-06-13T12:09:14.297Z,79.84
2018-06-13T12:11:43.450Z,78.99
2018-06-13T12:14:12.593Z,78.95
2018-06-13T12:16:41.730Z,78.58
2018-06-13T12:19:10.864Z,79.68
2018-06-13T12:21:40.031Z,79.26
2018-06-13T12:24:09.301Z,79.45
2018-06-13T12:26:38.474Z,79.02
2018-06-13T12:29:07.621Z,78.36
2018-06-13T12:31:36.778Z,78.54
2018-06-13T12:34:06.257Z,78.77
2018-06-13T12:36:35.732Z,78.80
2018-06-13T12:39:07.657Z,78.01
2018-06-13T12:41:36.804Z,77.81
2018-06-13T12:44:05.934Z,78.18
2018-06-13T12:46:35.341Z,78.19
2018-06-13T12:49:04.494Z,77.26
2018-06-13T12:51:33.629Z,78.46
2018-06-13T12:54:03.393Z,76.89
2018-06-13T12:56:32.753Z,78.21
2018-06-13T12:59:01.957Z,77.42
2018-06-13T13:01:31.251Z,77.84
2018-06-13T13:04:00.398Z,78.32
2018-06-13T13:06:29.525Z,77.81
2018-06-13T13:08:58.685Z,77.05
2018-06-13T13:11:27.887Z,78.58
2018-06-13T13:14:03.920Z,77.95
2018-06-13T13:16:33.128Z,78.09
2018-06-13T13:19:02.312Z,78.42
2018-06-13T13:21:31.269Z,78.34
2018-06-13T13:24:00.449Z,77.80
2018-06-13T13:26:29.646Z,78.52
2018-06-13T13:28:58.835Z,78.84
2018-06-13T13:31:28.026Z,77.71
2018-06-13T13:33:57.216Z,77.57
2018-06-13T13:36:26.394Z,76.50
2018-06-13T13:38:55.594Z,78.08
2018-06-13T13:41:24.782Z,78.17
2018-06-13T13:43:53.969Z,78.99
2018-06-13T13:46:23.162Z,77.15
2018-06-13T13:48:52.326Z,78.30
2018-06-13T13:51:21.304Z,78.49
2018-06-13T13:53:50.440Z,78.72
2018-06-13T13:56:19.573Z,77.84
2018-06-13T13:58:48.751Z,77.94
2018-06-13T14:01:17.877Z,78.12
2018-06-13T14:03:47.018Z,77.74
2018-06-13T14:06:16.161Z,77.29
2018-06-13T14:08:45.306Z,77.48
2018-06-13T14:11:14.489Z,76.59
2018-06-13T14:13:43.629Z,76.38
2018-06-13T14:16:12.805Z,76.49
2018-06-13T14:18:41.941Z,77.01
2018-06-13T14:21:11.125Z,77.01
2018-06-13T14:23:40.270Z,77.13
2018-06-13T14:26:09.417Z,76.33
2018-06-13T14:28:38.569Z,76.64
2018-06-13T14:31:07.729Z,76.76
2018-06-13T14:33:36.869Z,77.24
2018-06-13T14:36:06.149Z,75.74
2018-06-13T14:38:35.292Z,75.53
2018-06-13T14:41:04.435Z,76.42
2018-06-13T14:43:33.566Z,76.45
2018-06-13T14:46:02.718Z,76.85
2018-06-13T14:48:31.865Z,76.79
2018-06-13T14:51:01.017Z,76.04
2018-06-13T14:53:30.393Z,76.71
2018-06-13T14:56:04.808Z,76.93
2018-06-13T14:58:43.189Z,76.65
2018-06-13T15:01:12.346Z,76.14
2018-06-13T15:03:42.233Z,75.87
2018-06-13T15:06:11.656Z,76.60
2018-06-13T15:08:40.785Z,76.07
2018-06-13T15:11:09.930Z,76.56
2018-06-13T15:13:39.077Z,76.06
2018-06-13T15:16:08.217Z,77.23
2018-06-13T15:18:37.349Z,76.91
2018-06-13T15:21:06.697Z,76.96
2018-06-13T15:23:35.845Z,76.95
2018-06-13T15:26:05.021Z,77.32
2018-06-13T15:28:34.162Z,76.94
2018-06-13T15:31:03.306Z,76.26
2018-06-13T15:33:32.438Z,76.16
2018-06-13T15:36:01.594Z,77.18
2018-06-13T15:38:31.006Z,76.89
2018-06-13T15:40:59.908Z,77.25
2018-06-13T15:43:29.049Z,77.12
2018-06-13T15:45:58.201Z,77.56
2018-06-13T15:48:27.348Z,77.72
2018-06-13T15:50:56.522Z,77.77
2018-06-13T15:53:25.698Z,77.25
2018-06-13T15:55:54.856Z,77.45
2018-06-13T15:58:23.958Z,77.60
2018-06-13T16:00:53.116Z,77.43
2018-06-13T16:03:22.246Z,77.25
2018-06-13T16:05:51.445Z,78.38
2018-06-13T16:08:20.603Z,78.71
2018-06-13T16:10:49.760Z,78.32
2018-06-13T16:13:18.917Z,78.77
2018-06-13T16:15:48.052Z,78.08
2018-06-13T16:18:17.210Z,79.01
2018-06-13T16:20:46.522Z,78.57
2018-06-13T16:23:15.660Z,77.64
2018-06-13T16:25:44.814Z,79.05
2018-06-13T16:28:13.958Z,78.06
2018-06-13T16:30:43.105Z,77.19
2018-06-13T16:33:12.249Z,76.83
2018-06-13T16:35:41.398Z,78.25
2018-06-13T16:38:10.610Z,78.12
2018-06-13T16:40:39.807Z,77.66
2018-06-13T16:43:09.073Z,77.52
2018-06-13T16:45:38.270Z,77.51
2018-06-13T16:48:07.466Z,77.51
2018-06-13T16:51:47.221Z,76.09
2018-06-13T16:55:25.178Z,77.95
2018-06-13T16:57:54.398Z,77.63
2018-06-13T17:00:23.602Z,76.56
2018-06-13T17:02:52.970Z,76.66
2018-06-13T17:05:22.182Z,76.50
2018-06-13T17:07:51.729Z,76.98
2018-06-13T17:10:20.918Z,77.44
2018-06-13T17:12:50.389Z,76.84
2018-06-13T17:15:19.581Z,77.55
2018-06-13T17:17:48.765Z,76.64
2018-06-13T17:20:18.177Z,75.31
2018-06-13T17:22:47.366Z,76.17
2018-06-13T17:25:16.552Z,76.94
2018-06-13T17:27:45.822Z,77.39
2018-06-13T17:30:15.107Z,76.83
2018-06-13T17:32:44.247Z,75.40
2018-06-13T17:35:13.394Z,75.73
2018-06-13T17:37:42.572Z,75.42
2018-06-13T17:40:11.724Z,76.01
2018-06-13T17:42:40.857Z,75.62
2018-06-13T17:45:11.934Z,76.08
2018-06-13T17:47:41.655Z,75.63
2018-06-13T17:50:10.850Z,76.10
2018-06-13T17:52:39.985Z,76.28
2018-06-13T17:55:09.142Z,76.82
2018-06-13T17:57:38.279Z,76.20
2018-06-13T18:00:07.440Z,76.64
2018-06-13T18:02:36.577Z,76.74
2018-06-13T18:05:06.002Z,76.45
2018-06-13T18:07:35.397Z,76.71
2018-06-13T18:10:04.341Z,76.33
2018-06-13T18:12:33.469Z,76.42
2018-06-13T18:15:02.729Z,76.60
2018-06-13T18:17:32.181Z,76.98
2018-06-13T18:20:01.372Z,77.25
2018-06-13T18:22:30.481Z,77.51
2018-06-13T18:24:59.625Z,76.87
2018-06-13T18:27:28.780Z,76.68
2018-06-13T18:29:57.920Z,75.45
2018-06-13T18:32:27.060Z,75.07
2018-06-13T18:34:56.272Z,75.31
2018-06-13T18:37:25.860Z,75.34
2018-06-13T18:39:55.006Z,75.52
2018-06-13T18:42:24.141Z,75.27
2018-06-13T18:44:53.270Z,75.22
2018-06-13T18:47:22.405Z,75.33
2018-06-13T18:49:51.549Z,74.85
2018-06-13T18:52:20.706Z,75.62
2018-06-13T18:54:49.847Z,76.29
2018-06-13T18:57:18.966Z,76.64
2018-06-13T18:59:48.104Z,76.29
2018-06-13T19:02:17.229Z,75.23
2018-06-13T19:04:46.393Z,75.05
2018-06-13T19:07:15.714Z,75.14
2018-06-13T19:09:45.038Z,75.24
2018-06-13T19:12:14.217Z,74.34
2018-06-13T19:14:43.382Z,74.16
2018-06-13T19:17:12.546Z,74.32
2018-06-13T19:19:41.676Z,73.60
2018-06-13T19:22:10.838Z,74.10
2018-06-13T19:24:39.983Z,74.51
2018-06-13T19:27:09.426Z,73.79
2018-06-13T19:29:38.744Z,74.25
2018-06-13T19:32:08.030Z,75.09
2018-06-13T19:34:37.322Z,74.70
2018-06-13T19:37:06.558Z,74.81
2018-06-13T19:39:35.729Z,74.52
2018-06-13T19:42:04.920Z,74.60
2018-06-13T19:44:34.119Z,74.31
2018-06-13T19:47:08.760Z,74.75
2018-06-13T19:49:37.881Z,74.11
2018-06-13T19:52:07.024Z,73.43
2018-06-13T19:54:41.529Z,73.28
2018-06-13T19:57:10.705Z,73.46
2018-06-13T19:59:39.982Z,74.46
2018-06-13T20:02:09.118Z,73.44
2018-06-13T20:04:43.567Z,72.47
2018-06-13T20:07:12.622Z,72.27
2018-06-13T20:09:41.842Z,73.47
2018-06-13T20:12:46.789Z,73.77
2018-06-13T20:15:21.245Z,73.34
2018-06-13T20:17:55.678Z,72.78
2018-06-13T20:20:24.962Z,72.06
2018-06-13T20:22:54.277Z,71.71
2018-06-13T20:25:28.596Z,72.77
2018-06-13T20:28:03.154Z,73.20
2018-06-13T20:30:37.557Z,72.60
2018-06-13T20:33:06.692Z,72.97
2018-06-13T20:35:35.949Z,72.62
2018-06-13T20:38:05.157Z,73.08
2018-06-13T20:40:34.289Z,72.29
2018-06-13T20:43:03.521Z,71.90
2018-06-13T20:45:32.991Z,72.49
2018-06-13T20:48:02.389Z,72.32
2018-06-13T20:50:31.604Z,73.12
2018-06-13T20:53:01.078Z,72.92
2018-06-13T20:55:30.288Z,72.63
2018-06-13T20:57:59.506Z,73.35
2018-06-13T21:00:28.725Z,74.15
2018-06-13T21:02:57.905Z,74.21
2018-06-13T21:05:28.153Z,74.25
2018-06-13T21:07:57.357Z,74.25
2018-06-13T21:10:26.596Z,73.18
2018-06-13T21:12:55.782Z,73.87
2018-06-13T21:15:25.314Z,74.39
2018-06-13T21:17:54.492Z,73.83
2018-06-13T21:20:23.915Z,73.89
2018-06-13T21:22:53.001Z,74.70
2018-06-13T21:25:22.170Z,74.99
2018-06-13T21:27:51.369Z,74.18
2018-06-13T21:30:20.618Z,75.05
2018-06-13T21:32:49.765Z,74.89
2018-06-13T21:35:18.898Z,74.09
2018-06-13T21:37:48.058Z,74.18
2018-06-13T21:40:17.253Z,73.73
2018-06-13T21:42:46.336Z,74.64
2018-06-13T21:45:15.476Z,75.31
2018-06-13T21:47:44.614Z,74.66
2018-06-13T21:50:13.776Z,73.50
2018-06-13T21:52:43.052Z,74.52
2018-06-13T21:55:12.183Z,73.73
2018-06-13T21:57:41.313Z,74.18
2018-06-13T22:00:11.472Z,73.78
2018-06-13T22:02:40.670Z,73.93
2018-06-13T22:05:09.593Z,72.83
2018-06-13T22:07:38.733Z,72.15
2018-06-13T22:10:07.857Z,73.69
2018-06-13T22:12:36.993Z,73.50
2018-06-13T22:15:10.202Z,74.47
2018-06-13T22:17:39.345Z,73.81
2018-06-13T22:20:08.467Z,73.79
2018-06-13T22:22:37.601Z,74.25
2018-06-13T22:25:06.889Z,72.51
2018-06-13T22:27:36.042Z,72.86
2018-06-13T22:30:05.204Z,73.18
2018-06-13T22:32:34.325Z,73.21
2018-06-13T22:35:03.684Z,73.79
2018-06-13T22:37:33.025Z,74.09
2018-06-13T22:40:02.153Z,73.84
2018-06-13T22:42:31.570Z,73.64
2018-06-13T22:45:00.779Z,74.00
2018-06-13T22:47:29.882Z,74.16
2018-06-13T22:49:59.054Z,73.98
2018-06-13T22:52:28.224Z,73.96
2018-06-13T22:54:57.310Z,73.76
2018-06-13T22:57:26.513Z,73.42
2018-06-13T22:59:55.689Z,73.80
2018-06-13T23:02:24.869Z,73.81
2018-06-13T23:04:54.043Z,74.42
2018-06-13T23:07:23.244Z,74.38
2018-06-13T23:09:52.437Z,74.51
2018-06-13T23:12:21.904Z,74.77
2018-06-13T23:14:51.081Z,74.29
2018-06-13T23:17:20.278Z,74.42
2018-06-13T23:19:49.492Z,74.79
2018-06-13T23:22:18.589Z,74.79
2018-06-13T23:24:47.505Z,74.13
2018-06-13T23:27:16.641Z,73.42
2018-06-13T23:29:45.769Z,73.77
2018-06-13T23:32:14.901Z,74.03
2018-06-13T23:34:44.065Z,73.28
2018-06-13T23:37:13.203Z,72.94
2018-06-13T23:39:42.361Z,73.16
2018-06-13T23:42:11.493Z,73.48
2018-06-13T23:44:40.962Z,74.59
2018-06-13T23:47:10.094Z,74.32
2018-06-13T23:49:39.223Z,74.01
2018-06-13T23:52:08.364Z,73.81
2018-06-13T23:54:37.521Z,73.78
2018-06-13T23:57:06.693Z,74.11
2018-06-13T23:59:35.824Z,73.87
